Time;durP1;ratioP1;P1;durP2;ratioP2;P2;SDS_P1;SDS_P2;PMS_P1;PMS_P2;Temp;Humidity;BMP_temperature;BMP_pressure;BME280_temperature;BME280_humidity;BME280_pressure;Samples;Min_cycle;Max_cycle;Signal;HPM_P1;HPM_P2
2023/10/14 00:02:12;;;;;;;17.40;15.10;;;;;;;-128.00;-1.00;-1.00;105940;1249;1056276;-69
2023/10/14 00:04:38;;;;;;;17.30;15.50;;;;;;;-128.00;-1.00;-1.00;105970;1249;1058326;-69
2023/10/14 00:07:09;;;;;;;23.70;18.80;;;;;;;-128.00;-1.00;-1.00;105935;1250;1005921;-69
2023/10/14 00:09:49;;;;;;;22.50;19.00;;;;;;;-128.00;-1.00;-1.00;105920;1250;1047307;-69
2023/10/14 00:12:16;;;;;;;20.30;17.30;;;;;;;-128.00;-1.00;-1.00;105900;1249;1060989;-69
2023/10/14 00:14:46;;;;;;;22.20;18.20;;;;;;;-128.00;-1.00;-1.00;105967;1249;1007040;-68
2023/10/14 00:17:18;;;;;;;21.70;17.50;;;;;;;-128.00;-1.00;-1.00;105923;1249;1060513;-69
2023/10/14 00:19:55;;;;;;;22.10;18.60;;;;;;;-128.00;-1.00;-1.00;105921;1249;1045489;-68
2023/10/14 00:22:22;;;;;;;21.10;17.20;;;;;;;-128.00;-1.00;-1.00;105911;1249;1047026;-69
2023/10/14 00:24:52;;;;;;;22.80;18.90;;;;;;;-128.00;-1.00;-1.00;105930;1249;1003926;-69
2023/10/14 00:27:18;;;;;;;20.50;17.30;;;;;;;-128.00;-1.00;-1.00;105806;1249;1056634;-69
2023/10/14 00:29:45;;;;;;;20.70;17.90;;;;;;;-128.00;-1.00;-1.00;105899;1249;1004341;-69
2023/10/14 00:32:11;;;;;;;23.20;17.90;;;;;;;-128.00;-1.00;-1.00;105938;1249;1004591;-69
2023/10/14 00:34:38;;;;;;;20.10;17.20;;;;;;;-128.00;-1.00;-1.00;105975;1249;1004272;-69
2023/10/14 00:37:08;;;;;;;21.20;18.70;;;;;;;-128.00;-1.00;-1.00;105984;1249;1005149;-69
2023/10/14 00:39:34;;;;;;;22.50;18.40;;;;;;;-128.00;-1.00;-1.00;105989;1249;1056826;-69
2023/10/14 00:42:01;;;;;;;21.60;17.90;;;;;;;-128.00;-1.00;-1.00;105887;1249;1004237;-69
2023/10/14 00:44:28;;;;;;;19.70;17.60;;;;;;;-128.00;-1.00;-1.00;105943;1250;1004916;-69
2023/10/14 00:46:55;;;;;;;21.20;18.30;;;;;;;-128.00;-1.00;-1.00;105928;1250;1003567;-69
2023/10/14 00:49:34;;;;;;;22.80;19.30;;;;;;;-128.00;-1.00;-1.00;105883;1249;1004602;-69
2023/10/14 00:52:10;;;;;;;23.00;20.50;;;;;;;-128.00;-1.00;-1.00;105881;1250;1056588;-69
2023/10/14 00:59:50;;;;;;;23.50;19.60;;;;;;;-128.00;-1.00;-1.00;105774;1250;1048084;-69
2023/10/14 01:02:29;;;;;;;24.30;21.30;;;;;;;-128.00;-1.00;-1.00;105973;1249;1062883;-69
2023/10/14 01:04:58;;;;;;;21.80;18.70;;;;;;;-128.00;-1.00;-1.00;105880;1249;1055250;-69
2023/10/14 01:07:25;;;;;;;23.80;19.90;;;;;;;-128.00;-1.00;-1.00;105921;1249;1059524;-69
2023/10/14 01:09:52;;;;;;;22.00;19.60;;;;;;;-128.00;-1.00;-1.00;105938;1249;1004818;-69
2023/10/14 01:12:27;;;;;;;22.00;19.70;;;;;;;-128.00;-1.00;-1.00;105919;1249;1005423;-69
2023/10/14 01:14:58;;;;;;;24.20;20.00;;;;;;;-128.00;-1.00;-1.00;105928;1249;1063084;-69
2023/10/14 01:17:29;;;;;;;22.30;19.90;;;;;;;-128.00;-1.00;-1.00;105954;1249;1055933;-69
2023/10/14 01:19:59;;;;;;;24.10;20.70;;;;;;;-128.00;-1.00;-1.00;105907;1249;1060562;-69
2023/10/14 01:22:27;;;;;;;25.40;20.80;;;;;;;-128.00;-1.00;-1.00;105916;1249;1046862;-70
2023/10/14 01:24:55;;;;;;;24.60;21.40;;;;;;;-128.00;-1.00;-1.00;105797;1249;1003863;-69
2023/10/14 01:27:22;;;;;;;25.10;20.70;;;;;;;-128.00;-1.00;-1.00;105941;1249;1004454;-69
2023/10/14 01:29:51;;;;;;;23.10;20.60;;;;;;;-128.00;-1.00;-1.00;105944;1250;1004220;-69
2023/10/14 01:33:15;;;;;;;23.70;18.90;;;;;;;-128.00;-1.00;-1.00;105920;1249;1059833;-69
2023/10/14 01:35:22;;;;;;;23.30;19.30;;;;;;;-128.00;-1.00;-1.00;105797;1250;1046022;-69
2023/10/14 01:37:51;;;;;;;22.60;20.30;;;;;;;-128.00;-1.00;-1.00;105893;1249;1047132;-69
2023/10/14 01:43:10;;;;;;;23.00;18.90;;;;;;;-128.00;-1.00;-1.00;105874;1249;1055907;-69
2023/10/14 01:45:47;;;;;;;21.20;18.10;;;;;;;-128.00;-1.00;-1.00;105926;1250;1059290;-69
2023/10/14 01:48:19;;;;;;;25.10;19.20;;;;;;;-128.00;-1.00;-1.00;105944;1249;1046482;-69
2023/10/14 01:50:50;;;;;;;23.20;19.30;;;;;;;-128.00;-1.00;-1.00;105936;1249;1047282;-68
2023/10/14 01:53:23;;;;;;;23.90;20.60;;;;;;;-128.00;-1.00;-1.00;105988;1249;1061721;-69
2023/10/14 01:56:00;;;;;;;20.90;18.80;;;;;;;-128.00;-1.00;-1.00;105958;1249;1055778;-69
2023/10/14 02:01:21;;;;;;;27.00;23.00;;;;;;;-128.00;-1.00;-1.00;105892;1249;1004776;-69
2023/10/14 02:03:47;;;;;;;24.30;20.50;;;;;;;-128.00;-1.00;-1.00;105873;1249;1047205;-69
2023/10/14 02:06:18;;;;;;;24.60;20.10;;;;;;;-128.00;-1.00;-1.00;105928;1249;1004316;-69
2023/10/14 02:08:46;;;;;;;21.80;19.50;;;;;;;-128.00;-1.00;-1.00;105941;1249;1054818;-69
2023/10/14 02:11:20;;;;;;;24.70;19.40;;;;;;;-128.00;-1.00;-1.00;105921;1249;1004542;-69
2023/10/14 02:13:50;;;;;;;25.70;21.50;;;;;;;-128.00;-1.00;-1.00;105895;1249;1045408;-69
2023/10/14 02:16:40;;;;;;;25.20;21.90;;;;;;;-128.00;-1.00;-1.00;105954;1249;1047143;-69
2023/10/14 02:22:01;;;;;;;27.90;23.50;;;;;;;-128.00;-1.00;-1.00;105966;1249;1055194;-69
2023/10/14 02:24:29;;;;;;;26.20;23.10;;;;;;;-128.00;-1.00;-1.00;105913;1250;1059871;-68
2023/10/14 02:27:06;;;;;;;26.80;24.00;;;;;;;-128.00;-1.00;-1.00;105902;1249;1004023;-68
2023/10/14 02:29:33;;;;;;;26.80;23.10;;;;;;;-128.00;-1.00;-1.00;105904;1249;1046446;-69
2023/10/14 02:32:02;;;;;;;27.30;23.20;;;;;;;-128.00;-1.00;-1.00;105968;1249;1004196;-69
2023/10/14 02:34:30;;;;;;;29.60;24.10;;;;;;;-128.00;-1.00;-1.00;105948;1249;1056247;-69
2023/10/14 02:37:01;;;;;;;27.40;24.50;;;;;;;-128.00;-1.00;-1.00;105917;1250;1004056;-69
2023/10/14 02:39:28;;;;;;;25.90;23.30;;;;;;;-128.00;-1.00;-1.00;105936;1249;1045326;-69
2023/10/14 02:44:33;;;;;;;27.40;22.80;;;;;;;-128.00;-1.00;-1.00;105771;1249;1062450;-69
2023/10/14 02:47:08;;;;;;;24.60;22.10;;;;;;;-128.00;-1.00;-1.00;105936;1249;1055418;-69
2023/10/14 02:49:40;;;;;;;25.40;23.00;;;;;;;-128.00;-1.00;-1.00;105899;1250;1058632;-69
2023/10/14 02:52:11;;;;;;;26.00;21.60;;;;;;;-128.00;-1.00;-1.00;105811;1249;1047102;-68
2023/10/14 02:54:44;;;;;;;21.70;19.50;;;;;;;-128.00;-1.00;-1.00;105948;1250;1046945;-68
2023/10/14 02:57:29;;;;;;;23.90;20.30;;;;;;;-128.00;-1.00;-1.00;105961;1250;1062517;-68
2023/10/14 02:59:56;;;;;;;23.40;20.40;;;;;;;-128.00;-1.00;-1.00;105937;1249;1056455;-69
2023/10/14 03:05:08;;;;;;;22.50;18.40;;;;;;;-128.00;-1.00;-1.00;105912;1249;1005105;-68
2023/10/14 03:07:46;;;;;;;22.50;20.10;;;;;;;-128.00;-1.00;-1.00;105933;1250;1047040;-69
2023/10/14 03:10:18;;;;;;;28.10;23.70;;;;;;;-128.00;-1.00;-1.00;105950;1249;1063443;-68
2023/10/14 03:12:49;;;;;;;29.80;25.60;;;;;;;-128.00;-1.00;-1.00;105948;1249;1054772;-68
2023/10/14 03:15:19;;;;;;;;;;;;;;;-128.00;-1.00;-1.00;105906;1249;1058995;-68
2023/10/14 03:17:55;;;;;;;22.70;19.10;;;;;;;-128.00;-1.00;-1.00;105910;1249;1045745;-68
2023/10/14 03:23:22;;;;;;;21.20;18.80;;;;;;;-128.00;-1.00;-1.00;105940;1249;1061890;-69
2023/10/14 03:25:52;;;;;;;29.70;22.00;;;;;;;-128.00;-1.00;-1.00;105815;1250;1055507;-68
2023/10/14 03:28:20;;;;;;;25.60;18.80;;;;;;;-128.00;-1.00;-1.00;105923;1249;1059932;-70
2023/10/14 03:30:56;;;;;;;24.50;18.50;;;;;;;-128.00;-1.00;-1.00;105863;1250;1004592;-68
2023/10/14 03:33:27;;;;;;;23.10;16.90;;;;;;;-128.00;-1.00;-1.00;105950;1249;1046915;-69
2023/10/14 03:36:02;;;;;;;19.60;16.80;;;;;;;-128.00;-1.00;-1.00;105969;1249;1062159;-69
2023/10/14 03:41:03;;;;;;;20.10;15.40;;;;;;;-128.00;-1.00;-1.00;105934;1249;1058543;-69
2023/10/14 03:43:42;;;;;;;20.50;15.70;;;;;;;-128.00;-1.00;-1.00;105862;1249;1046076;-69
2023/10/14 03:46:12;;;;;;;18.60;15.60;;;;;;;-128.00;-1.00;-1.00;105952;1249;1047405;-69
2023/10/14 03:48:48;;;;;;;;;;;;;;;-128.00;-1.00;-1.00;105985;1249;1063978;-68
2023/10/14 03:51:25;;;;;;;16.90;14.10;;;;;;;-128.00;-1.00;-1.00;105947;1249;1055557;-68
2023/10/14 03:53:52;;;;;;;20.80;15.10;;;;;;;-128.00;-1.00;-1.00;105952;1249;1058736;-69
2023/10/14 03:56:25;;;;;;;19.00;14.80;;;;;;;-128.00;-1.00;-1.00;105917;1249;1004343;-70
2023/10/14 03:59:00;;;;;;;18.90;13.90;;;;;;;-128.00;-1.00;-1.00;105969;1249;1047263;-69
2023/10/14 04:02:19;;;;;;;19.80;15.30;;;;;;;-128.00;-1.00;-1.00;105973;1249;1061581;-69
2023/10/14 04:04:20;;;;;;;18.60;15.20;;;;;;;-128.00;-1.00;-1.00;105837;1249;1056125;-70
2023/10/14 04:06:55;;;;;;;20.60;14.70;;;;;;;-128.00;-1.00;-1.00;105773;1249;1059450;-69
2023/10/14 04:09:36;;;;;;;18.20;14.90;;;;;;;-128.00;-1.00;-1.00;105910;1249;1046326;-69
2023/10/14 04:12:08;;;;;;;15.10;13.50;;;;;;;-128.00;-1.00;-1.00;105934;1249;1046503;-68
2023/10/14 04:14:39;;;;;;;20.60;15.20;;;;;;;-128.00;-1.00;-1.00;105975;1249;1062472;-68
2023/10/14 04:17:18;;;;;;;15.90;13.60;;;;;;;-128.00;-1.00;-1.00;105908;1250;1054688;-69
2023/10/14 04:19:44;;;;;;;21.10;14.70;;;;;;;-128.00;-1.00;-1.00;105795;1250;1059776;-69
2023/10/14 04:22:31;;;;;;;21.30;14.30;;;;;;;-128.00;-1.00;-1.00;105869;1249;1004594;-69
2023/10/14 04:27:56;;;;;;;17.90;14.00;;;;;;;-128.00;-1.00;-1.00;105952;1249;1062497;-69
2023/10/14 04:30:32;;;;;;;19.50;15.10;;;;;;;-128.00;-1.00;-1.00;105915;1249;1055379;-70
2023/10/14 04:35:32;;;;;;;17.70;15.10;;;;;;;-128.00;-1.00;-1.00;105880;1249;1047086;-68
2023/10/14 04:38:13;;;;;;;18.70;16.20;;;;;;;-128.00;-1.00;-1.00;105913;1249;1046395;-69
2023/10/14 04:40:41;;;;;;;22.10;15.90;;;;;;;-128.00;-1.00;-1.00;105926;1249;1062642;-69
2023/10/14 04:43:19;;;;;;;17.10;14.80;;;;;;;-128.00;-1.00;-1.00;105960;1249;1004712;-70
2023/10/14 04:45:52;;;;;;;17.70;15.00;;;;;;;-128.00;-1.00;-1.00;105934;1249;1058891;-69
2023/10/14 04:48:26;;;;;;;20.30;16.10;;;;;;;-128.00;-1.00;-1.00;105934;1249;1046611;-69
2023/10/14 04:50:56;;;;;;;19.80;17.20;;;;;;;-128.00;-1.00;-1.00;105921;1249;1046306;-69
2023/10/14 04:53:26;;;;;;;19.20;15.60;;;;;;;-128.00;-1.00;-1.00;105864;1250;1063112;-69
2023/10/14 04:55:54;;;;;;;18.50;15.10;;;;;;;-128.00;-1.00;-1.00;105888;1250;1054508;-69
2023/10/14 04:58:25;;;;;;;23.20;18.00;;;;;;;-128.00;-1.00;-1.00;105930;1249;1004748;-68
2023/10/14 05:01:00;;;;;;;23.00;15.30;;;;;;;-128.00;-1.00;-1.00;105884;1249;1046133;-69
2023/10/14 05:03:31;;;;;;;17.70;14.50;;;;;;;-128.00;-1.00;-1.00;105893;1249;1047705;-69
2023/10/14 05:06:14;;;;;;;17.90;13.50;;;;;;;-128.00;-1.00;-1.00;105943;1249;1062589;-69
2023/10/14 05:08:45;;;;;;;20.70;14.30;;;;;;;-128.00;-1.00;-1.00;105956;1249;1056160;-69
2023/10/14 05:11:13;;;;;;;22.00;15.50;;;;;;;-128.00;-1.00;-1.00;105872;1249;1059679;-69
2023/10/14 05:13:42;;;;;;;25.30;18.70;;;;;;;-128.00;-1.00;-1.00;105930;1249;1005146;-69
2023/10/14 05:16:21;;;;;;;22.70;17.50;;;;;;;-128.00;-1.00;-1.00;105940;1249;1049883;-69
2023/10/14 05:21:37;;;;;;;25.70;17.40;;;;;;;-128.00;-1.00;-1.00;105889;1249;1055969;-69
2023/10/14 05:24:06;;;;;;;26.60;16.10;;;;;;;-128.00;-1.00;-1.00;105948;1249;1059782;-69
2023/10/14 05:26:36;;;;;;;22.00;15.20;;;;;;;-128.00;-1.00;-1.00;105763;1249;1046195;-69
2023/10/14 05:29:11;;;;;;;;;;;;;;;-128.00;-1.00;-1.00;105910;1250;1046867;-69
2023/10/14 05:31:37;;;;;;;16.80;14.40;;;;;;;-128.00;-1.00;-1.00;105900;1249;1063331;-68
2023/10/14 05:34:05;;;;;;;21.10;15.60;;;;;;;-128.00;-1.00;-1.00;105887;1250;1004663;-69
2023/10/14 05:36:32;;;;;;;22.10;14.50;;;;;;;-128.00;-1.00;-1.00;105860;1249;1003527;-69
2023/10/14 05:39:02;;;;;;;16.20;13.10;;;;;;;-128.00;-1.00;-1.00;105878;1249;1004708;-68
2023/10/14 05:41:30;;;;;;;19.70;13.10;;;;;;;-128.00;-1.00;-1.00;105915;1249;1048257;-68
2023/10/14 05:43:56;;;;;;;17.60;13.50;;;;;;;-128.00;-1.00;-1.00;105927;1249;1004384;-69
2023/10/14 05:46:23;;;;;;;16.90;12.90;;;;;;;-128.00;-1.00;-1.00;105943;1249;1005259;-69
2023/10/14 05:48:53;;;;;;;16.10;13.40;;;;;;;-128.00;-1.00;-1.00;105911;1249;1005811;-69
2023/10/14 05:51:20;;;;;;;16.30;11.70;;;;;;;-128.00;-1.00;-1.00;105900;1249;1047116;-69
2023/10/14 05:53:46;;;;;;;13.90;11.10;;;;;;;-128.00;-1.00;-1.00;105956;1249;1003574;-68
2023/10/14 05:56:16;;;;;;;13.90;11.70;;;;;;;-128.00;-1.00;-1.00;105909;1249;1004393;-68
2023/10/14 05:58:48;;;;;;;13.60;10.50;;;;;;;-128.00;-1.00;-1.00;105850;1250;1056109;-69
2023/10/14 06:01:19;;;;;;;16.30;11.60;;;;;;;-128.00;-1.00;-1.00;105871;1249;1058483;-69
2023/10/14 06:03:46;;;;;;;14.30;11.70;;;;;;;-128.00;-1.00;-1.00;105853;1249;1047110;-69
2023/10/14 06:06:16;;;;;;;15.70;11.10;;;;;;;-128.00;-1.00;-1.00;105947;1249;1004650;-69
2023/10/14 06:08:46;;;;;;;14.50;11.10;;;;;;;-128.00;-1.00;-1.00;105926;1249;1062687;-69
2023/10/14 06:11:13;;;;;;;;;;;;;;;-128.00;-1.00;-1.00;105954;1249;1054358;-69
2023/10/14 06:13:39;;;;;;;16.60;11.40;;;;;;;-128.00;-1.00;-1.00;105899;1249;1004341;-69
2023/10/14 06:16:11;;;;;;;14.00;11.80;;;;;;;-128.00;-1.00;-1.00;105865;1249;1004837;-69
2023/10/14 06:18:43;;;;;;;14.60;11.10;;;;;;;-128.00;-1.00;-1.00;105887;1249;1047735;-68
2023/10/14 06:21:10;;;;;;;16.80;11.20;;;;;;;-128.00;-1.00;-1.00;105757;1249;1062787;-69
2023/10/14 06:23:40;;;;;;;16.00;11.00;;;;;;;-128.00;-1.00;-1.00;105930;1249;1003856;-68
2023/10/14 06:26:06;;;;;;;17.20;10.90;;;;;;;-128.00;-1.00;-1.00;105857;1250;1059210;-68
2023/10/14 06:28:33;;;;;;;14.20;11.10;;;;;;;-128.00;-1.00;-1.00;105904;1249;1004091;-68
2023/10/14 06:31:00;;;;;;;14.50;11.30;;;;;;;-128.00;-1.00;-1.00;105883;1250;1004555;-68
2023/10/14 06:33:27;;;;;;;14.60;10.70;;;;;;;-128.00;-1.00;-1.00;105935;1250;1003984;-69
2023/10/14 06:35:53;;;;;;;13.70;11.50;;;;;;;-128.00;-1.00;-1.00;105719;1249;1003668;-69
2023/10/14 06:38:22;;;;;;;15.80;10.60;;;;;;;-128.00;-1.00;-1.00;105911;1249;1004453;-69
2023/10/14 06:40:55;;;;;;;13.10;10.20;;;;;;;-128.00;-1.00;-1.00;105886;1250;1049032;-70
2023/10/14 06:43:22;;;;;;;15.80;10.60;;;;;;;-128.00;-1.00;-1.00;105819;1249;1046861;-68
2023/10/14 06:45:51;;;;;;;14.80;10.80;;;;;;;-128.00;-1.00;-1.00;105752;1250;1005296;-68
2023/10/14 06:48:18;;;;;;;13.90;10.70;;;;;;;-128.00;-1.00;-1.00;105875;1249;1056348;-69
2023/10/14 06:50:48;;;;;;;13.50;10.30;;;;;;;-128.00;-1.00;-1.00;105893;1250;1005827;-69
2023/10/14 06:53:15;;;;;;;;;;;;;;;-128.00;-1.00;-1.00;105937;1249;1046037;-69
2023/10/14 06:55:42;;;;;;;13.10;10.20;;;;;;;-128.00;-1.00;-1.00;105905;1249;1004044;-69
2023/10/14 06:58:17;;;;;;;12.40;10.20;;;;;;;-128.00;-1.00;-1.00;105895;1249;1003696;-69
2023/10/14 07:00:45;;;;;;;13.20;10.40;;;;;;;-128.00;-1.00;-1.00;105875;1250;1056573;-69
2023/10/14 07:03:14;;;;;;;13.40;9.60;;;;;;;-128.00;-1.00;-1.00;105930;1250;1004175;-68
2023/10/14 07:05:48;;;;;;;12.50;11.20;;;;;;;-128.00;-1.00;-1.00;105890;1249;1046460;-68
2023/10/14 07:08:17;;;;;;;11.60;10.00;;;;;;;-128.00;-1.00;-1.00;105897;1249;1047566;-68
2023/10/14 07:10:47;;;;;;;20.30;11.20;;;;;;;-128.00;-1.00;-1.00;105907;1249;1062463;-69
2023/10/14 07:13:13;;;;;;;11.70;9.10;;;;;;;-128.00;-1.00;-1.00;105911;1249;1056286;-70
2023/10/14 07:15:41;;;;;;;12.30;8.90;;;;;;;-128.00;-1.00;-1.00;105900;1249;1004184;-69
2023/10/14 07:18:13;;;;;;;10.90;9.40;;;;;;;-128.00;-1.00;-1.00;105744;1249;1004576;-69
2023/10/14 07:20:42;;;;;;;11.90;9.40;;;;;;;-128.00;-1.00;-1.00;105938;1249;1047167;-70
2023/10/14 07:23:08;;;;;;;11.10;8.80;;;;;;;-128.00;-1.00;-1.00;105818;1249;1062748;-70
2023/10/14 07:25:39;;;;;;;17.10;9.70;;;;;;;-128.00;-1.00;-1.00;105932;1249;1003668;-68
2023/10/14 07:28:13;;;;;;;10.50;9.50;;;;;;;-128.00;-1.00;-1.00;105850;1249;1059952;-69
2023/10/14 07:30:46;;;;;;;11.20;9.00;;;;;;;-128.00;-1.00;-1.00;105848;1250;1045590;-69
2023/10/14 07:33:13;;;;;;;12.50;9.10;;;;;;;-128.00;-1.00;-1.00;105915;1249;1046710;-69
2023/10/14 07:35:40;;;;;;;12.50;8.50;;;;;;;-128.00;-1.00;-1.00;105916;1249;1004753;-69
2023/10/14 07:38:06;;;;;;;10.70;8.90;;;;;;;-128.00;-1.00;-1.00;105905;1250;1004480;-68
2023/10/14 07:40:36;;;;;;;11.00;8.70;;;;;;;-128.00;-1.00;-1.00;105862;1250;1003541;-69
2023/10/14 07:43:08;;;;;;;13.00;9.60;;;;;;;-128.00;-1.00;-1.00;105856;1249;1045696;-69
2023/10/14 07:45:35;;;;;;;11.10;9.00;;;;;;;-128.00;-1.00;-1.00;105937;1249;1046551;-69
2023/10/14 07:48:09;;;;;;;13.00;9.60;;;;;;;-128.00;-1.00;-1.00;105733;1249;1004216;-69
2023/10/14 07:50:37;;;;;;;11.30;9.10;;;;;;;-128.00;-1.00;-1.00;105963;1249;1056923;-69
2023/10/14 07:53:08;;;;;;;11.70;8.50;;;;;;;-128.00;-1.00;-1.00;105870;1249;1003233;-69
2023/10/14 07:55:47;;;;;;;15.10;8.80;;;;;;;-128.00;-1.00;-1.00;105906;1249;1045475;-69
2023/10/14 07:58:15;;;;;;;10.90;7.90;;;;;;;-128.00;-1.00;-1.00;105884;1249;1047054;-69
2023/10/14 08:00:51;;;;;;;16.10;9.60;;;;;;;-128.00;-1.00;-1.00;105718;1249;1061430;-69
2023/10/14 08:03:29;;;;;;;21.30;8.90;;;;;;;-128.00;-1.00;-1.00;105923;1250;1055274;-69
2023/10/14 08:06:00;;;;;;;16.40;7.90;;;;;;;-128.00;-1.00;-1.00;105888;1250;1060203;-68
2023/10/14 08:08:42;;;;;;;13.70;8.50;;;;;;;-128.00;-1.00;-1.00;105706;1254;1046919;-69
2023/10/14 08:11:12;;;;;;;12.60;8.30;;;;;;;-128.00;-1.00;-1.00;105763;1249;1046506;-69
2023/10/14 08:13:40;;;;;;;10.50;8.00;;;;;;;-128.00;-1.00;-1.00;105912;1249;1061565;-69
2023/10/14 08:16:07;;;;;;;9.80;8.30;;;;;;;-128.00;-1.00;-1.00;105783;1249;1055841;-70
2023/10/14 08:18:35;;;;;;;11.90;8.30;;;;;;;-128.00;-1.00;-1.00;105909;1250;1005321;-70
2023/10/14 08:21:03;;;;;;;13.20;8.60;;;;;;;-128.00;-1.00;-1.00;105910;1249;1004119;-70
2023/10/14 08:23:29;;;;;;;11.10;8.90;;;;;;;-128.00;-1.00;-1.00;105914;1249;1003696;-69
2023/10/14 08:25:57;;;;;;;10.10;8.40;;;;;;;-128.00;-1.00;-1.00;105873;1249;1004265;-66
2023/10/14 08:28:24;;;;;;;9.30;8.30;;;;;;;-128.00;-1.00;-1.00;105936;1250;1003595;-67
2023/10/14 08:30:51;;;;;;;9.70;7.20;;;;;;;-128.00;-1.00;-1.00;105911;1249;1004694;-68
2023/10/14 08:33:19;;;;;;;10.80;8.00;;;;;;;-128.00;-1.00;-1.00;105884;1250;1004921;-67
2023/10/14 08:35:48;;;;;;;10.70;8.30;;;;;;;-128.00;-1.00;-1.00;105904;1249;1047214;-68
2023/10/14 08:38:17;;;;;;;8.80;7.90;;;;;;;-128.00;-1.00;-1.00;105891;1250;1003951;-67
2023/10/14 08:40:49;;;;;;;10.90;8.70;;;;;;;-128.00;-1.00;-1.00;105532;1249;1055131;-67
2023/10/14 08:43:20;;;;;;;9.60;8.30;;;;;;;-128.00;-1.00;-1.00;105891;1249;1058804;-67
2023/10/14 08:45:48;;;;;;;12.50;8.80;;;;;;;-128.00;-1.00;-1.00;105873;1251;1045755;-68
2023/10/14 08:48:19;;;;;;;11.00;8.80;;;;;;;-128.00;-1.00;-1.00;105944;1249;1003601;-68
2023/10/14 08:50:49;;;;;;;11.90;8.40;;;;;;;-128.00;-1.00;-1.00;105932;1250;1062395;-68
2023/10/14 08:53:16;;;;;;;8.80;7.80;;;;;;;-128.00;-1.00;-1.00;105935;1249;1055378;-67
2023/10/14 08:55:49;;;;;;;11.90;8.60;;;;;;;-128.00;-1.00;-1.00;105962;1249;1003768;-68
2023/10/14 08:58:15;;;;;;;9.70;7.50;;;;;;;-128.00;-1.00;-1.00;105916;1249;1046030;-68
2023/10/14 09:00:44;;;;;;;13.40;8.50;;;;;;;-128.00;-1.00;-1.00;105908;1249;1005085;-68
2023/10/14 09:03:11;;;;;;;11.70;8.30;;;;;;;-128.00;-1.00;-1.00;105955;1250;1003694;-67
2023/10/14 09:05:40;;;;;;;9.30;8.30;;;;;;;-128.00;-1.00;-1.00;105898;1249;1004324;-67
2023/10/14 09:08:09;;;;;;;11.00;8.70;;;;;;;-128.00;-1.00;-1.00;105889;1249;1004316;-67
2023/10/14 09:10:36;;;;;;;9.30;8.30;;;;;;;-128.00;-1.00;-1.00;105892;1249;1047209;-67
2023/10/14 09:13:08;;;;;;;12.00;8.50;;;;;;;-128.00;-1.00;-1.00;105944;1249;1003660;-68
2023/10/14 09:15:40;;;;;;;10.10;7.70;;;;;;;-128.00;-1.00;-1.00;105884;1250;1062534;-68
2023/10/14 09:18:14;;;;;;;10.00;7.50;;;;;;;-128.00;-1.00;-1.00;105902;1250;1056969;-68
2023/10/14 09:20:41;;;;;;;11.70;8.00;;;;;;;-128.00;-1.00;-1.00;105926;1249;1059456;-67
2023/10/14 09:23:32;;;;;;;10.10;7.50;;;;;;;-128.00;-1.00;-1.00;105908;1249;1003192;-68
2023/10/14 09:26:02;;;;;;;11.90;7.80;;;;;;;-128.00;-1.00;-1.00;105911;1249;1046824;-68
2023/10/14 09:28:34;;;;;;;8.10;6.80;;;;;;;-128.00;-1.00;-1.00;105894;1249;1061781;-68
2023/10/14 09:31:03;;;;;;;12.30;7.90;;;;;;;-128.00;-1.00;-1.00;105942;1250;1056903;-67
2023/10/14 09:33:32;;;;;;;8.10;7.30;;;;;;;-128.00;-1.00;-1.00;105885;1249;1059785;-67
2023/10/14 09:36:04;;;;;;;11.10;8.20;;;;;;;-128.00;-1.00;-1.00;105767;1250;1045735;-67
2023/10/14 09:38:32;;;;;;;13.20;7.50;;;;;;;-128.00;-1.00;-1.00;105903;1253;1047383;-68
2023/10/14 09:41:03;;;;;;;10.60;7.60;;;;;;;-128.00;-1.00;-1.00;105938;1250;1004073;-68
2023/10/14 09:43:35;;;;;;;10.70;8.00;;;;;;;-128.00;-1.00;-1.00;105917;1250;1055275;-67
2023/10/14 09:46:10;;;;;;;9.80;8.30;;;;;;;-128.00;-1.00;-1.00;105718;1249;1060810;-68
2023/10/14 09:48:39;;;;;;;9.70;8.10;;;;;;;-128.00;-1.00;-1.00;105919;1250;1044608;-68
2023/10/14 09:51:07;;;;;;;10.80;8.30;;;;;;;-128.00;-1.00;-1.00;105885;1249;1004053;-68
2023/10/14 09:53:35;;;;;;;8.50;7.60;;;;;;;-128.00;-1.00;-1.00;105891;1249;1003704;-68
2023/10/14 09:56:07;;;;;;;9.10;7.40;;;;;;;-128.00;-1.00;-1.00;105885;1250;1055809;-68
2023/10/14 09:58:35;;;;;;;10.50;8.00;;;;;;;-128.00;-1.00;-1.00;105867;1250;1059876;-68
2023/10/14 10:01:04;;;;;;;8.90;7.60;;;;;;;-128.00;-1.00;-1.00;105873;1249;1005295;-68
2023/10/14 10:04:00;;;;;;;9.60;7.10;;;;;;;-128.00;-1.00;-1.00;105722;1249;1046961;-68
2023/10/14 10:06:47;;;;;;;9.90;6.90;;;;;;;-128.00;-1.00;-1.00;105892;1251;1062959;-67
2023/10/14 10:09:35;;;;;;;11.00;7.60;;;;;;;-128.00;-1.00;-1.00;105876;1250;1055109;-68
2023/10/14 10:12:08;;;;;;;10.50;7.50;;;;;;;-128.00;-1.00;-1.00;105913;1250;1060531;-67
2023/10/14 10:14:42;;;;;;;16.20;11.10;;;;;;;-128.00;-1.00;-1.00;105846;1249;1044171;-68
2023/10/14 10:17:11;;;;;;;21.40;14.90;;;;;;;-128.00;-1.00;-1.00;105929;1249;1047551;-68
2023/10/14 10:19:59;;;;;;;14.80;10.90;;;;;;;-128.00;-1.00;-1.00;105895;1250;1062567;-67
2023/10/14 10:22:50;;;;;;;26.10;17.30;;;;;;;-128.00;-1.00;-1.00;105983;1249;1055091;-67
2023/10/14 10:25:21;;;;;;;18.50;13.60;;;;;;;-128.00;-1.00;-1.00;105853;1249;1058851;-67
2023/10/14 10:27:49;;;;;;;;;;;;;;;-128.00;-1.00;-1.00;105888;1249;1044618;-68
2023/10/14 10:30:18;;;;;;;12.50;9.00;;;;;;;-128.00;-1.00;-1.00;105925;1250;1047271;-68
2023/10/14 10:32:50;;;;;;;11.70;9.30;;;;;;;-128.00;-1.00;-1.00;105929;1249;1062462;-68
2023/10/14 10:35:20;;;;;;;9.10;8.10;;;;;;;-128.00;-1.00;-1.00;105756;1249;1055536;-68
2023/10/14 10:37:53;;;;;;;12.20;10.10;;;;;;;-128.00;-1.00;-1.00;105839;1250;1058626;-68
2023/10/14 10:40:22;;;;;;;14.80;10.00;;;;;;;-128.00;-1.00;-1.00;105884;1253;1044358;-69
2023/10/14 10:42:57;;;;;;;8.70;7.30;;;;;;;-128.00;-1.00;-1.00;105874;1249;1047030;-67
2023/10/14 10:45:29;;;;;;;13.10;9.80;;;;;;;-128.00;-1.00;-1.00;105919;1250;1061365;-67
2023/10/14 10:48:03;;;;;;;12.70;8.00;;;;;;;-128.00;-1.00;-1.00;105906;1250;1055253;-68
2023/10/14 10:50:35;;;;;;;8.90;7.50;;;;;;;-128.00;-1.00;-1.00;105947;1249;1059992;-68
2023/10/14 10:53:17;;;;;;;9.50;7.60;;;;;;;-128.00;-1.00;-1.00;105895;1249;1044062;-68
2023/10/14 10:55:46;;;;;;;9.40;7.30;;;;;;;-128.00;-1.00;-1.00;105879;1250;1047047;-68
2023/10/14 10:58:14;;;;;;;9.90;7.20;;;;;;;-128.00;-1.00;-1.00;105888;1249;1062187;-67
2023/10/14 11:00:45;;;;;;;9.10;7.50;;;;;;;-128.00;-1.00;-1.00;105897;1250;1004696;-67
2023/10/14 11:03:16;;;;;;;11.30;7.70;;;;;;;-128.00;-1.00;-1.00;105901;1250;1059701;-67
2023/10/14 11:05:46;;;;;;;12.40;8.10;;;;;;;-128.00;-1.00;-1.00;105916;1249;1043927;-67
2023/10/14 11:08:16;;;;;;;10.30;7.80;;;;;;;-128.00;-1.00;-1.00;105895;1250;1003955;-68
2023/10/14 11:10:44;;;;;;;9.90;7.60;;;;;;;-128.00;-1.00;-1.00;105880;1249;1061869;-68
2023/10/14 11:13:12;;;;;;;10.10;8.50;;;;;;;-128.00;-1.00;-1.00;105908;1250;1004533;-68
2023/10/14 11:15:40;;;;;;;9.40;7.70;;;;;;;-128.00;-1.00;-1.00;105927;1250;1058984;-68
2023/10/14 11:18:10;;;;;;;11.30;8.50;;;;;;;-128.00;-1.00;-1.00;105901;1250;1004132;-68
2023/10/14 11:20:46;;;;;;;9.90;7.90;;;;;;;-128.00;-1.00;-1.00;105824;1249;1047292;-68
2023/10/14 11:23:13;;;;;;;11.70;7.90;;;;;;;-128.00;-1.00;-1.00;105932;1249;1060951;-68
2023/10/14 11:25:45;;;;;;;13.10;8.50;;;;;;;-128.00;-1.00;-1.00;105968;1250;1003714;-68
2023/10/14 11:28:14;;;;;;;11.30;8.60;;;;;;;-128.00;-1.00;-1.00;105888;1250;1059621;-67
2023/10/14 11:30:42;;;;;;;13.80;9.00;;;;;;;-128.00;-1.00;-1.00;105824;1250;1044909;-68
2023/10/14 11:33:13;;;;;;;9.80;8.20;;;;;;;-128.00;-1.00;-1.00;105745;1250;1004407;-68
2023/10/14 11:35:40;;;;;;;10.00;9.00;;;;;;;-128.00;-1.00;-1.00;105904;1250;1061143;-68
2023/10/14 11:38:12;;;;;;;9.40;8.10;;;;;;;-128.00;-1.00;-1.00;105895;1250;1006105;-67
2023/10/14 11:40:45;;;;;;;11.30;8.30;;;;;;;-128.00;-1.00;-1.00;105878;1250;1058693;-68
2023/10/14 11:43:11;;;;;;;11.60;8.20;;;;;;;-128.00;-1.00;-1.00;105936;1250;1044900;-68
2023/10/14 11:45:45;;;;;;;10.80;7.90;;;;;;;-128.00;-1.00;-1.00;105906;1249;1003589;-68
2023/10/14 11:48:30;;;;;;;13.20;8.00;;;;;;;-128.00;-1.00;-1.00;105879;1249;1061653;-67
2023/10/14 11:51:01;;;;;;;11.60;7.20;;;;;;;-128.00;-1.00;-1.00;105918;1250;1055565;-68
2023/10/14 11:53:32;;;;;;;12.20;8.30;;;;;;;-128.00;-1.00;-1.00;105918;1249;1059945;-68
2023/10/14 11:56:01;;;;;;;11.70;7.20;;;;;;;-128.00;-1.00;-1.00;105595;1249;1044203;-67
2023/10/14 11:58:29;;;;;;;10.30;8.00;;;;;;;-128.00;-1.00;-1.00;105916;1250;1047806;-67